메인 페이지
METAR-TAF:

METAR-TAF

공항 :

오데사, 우크라이나

위도: 46-26N, 경도: 030-46E, 고도: 42m

현재 날씨관측

예보는 18분 전, 14:30시(UTC)에 발표되었습니다.
북북동10kt풍과 풍을 오가는
온도 28°C
습도 32%
기압 1013 hPa
시정 10km 이상
1500m 미만 상공 구름 및 적란운 없음

METAR: UKOO 251430Z 03005MPS 360V080 CAVOK 28/10 Q1013 R34/090060 NOSIG

시각: 17:48 (14:48 UTC)

예보

예보는 3 시간 41분 전, 11:07시(UTC)에 발표되었습니다.
예보 대상 시간: 25일 12시부터 26일 12시까지 (UTC)
북동14kt, 순간 최대 풍속 27kt
시정: 6000m
고도 1500ft 상공 구름 많음
고도 2000ft 상공 구름 보통, 적란운.
확률 40% :
일시적
25일 12시부터 25일 18시까지 (UTC)
여러 방향의 바람 31kt
시정: 2100m
뇌우, 약한비, 우박

TAF: UKOO 251107Z 2512/2612 04007G14MPS 6000 BKN015 SCT020CB TX29/2512Z TN17/2602Z PROB40 TEMPO 2512/2518 VRB16MPS 2100 -TSRAGR

4,000개 이상의 공항 관측 자료 및 예보 (METAR 및 TAF 보고).

지도상에서 검색 가능한 기상관측소가 노란 점과 빨간 점으로 표시되어 있습니다.

기상관측소 명을 보려면 표시 위로 마우스를 이동하세요.

날씨 관측과 예보를 보려면 클릭하세요.

지도 변경 : 확대하려면 엑스 표시가 있는 녹색 버튼, 축소하려면 빼기 표시가 있는 녹색 버튼, 다음 페이지의 지도를 보려면 녹색 화살표를 클릭하세요.


METAR-TAF: